Weather History for KCKC - April, 2013

Change the Weather History Date:

Tuesday, April 23, 2013

  Actual Average Record
Temperature  
Mean Temperature 32 °F -  
Max Temperature 39 °F 47 °F 75 °F (1998)
Min Temperature 24 °F 27 °F 3 °F (1999)
Degree Days  
Heating Degree Days 34    
Moisture  
Dew Point 16 °F    
Average Humidity 59    
Maximum Humidity 86    
Minimum Humidity 33    
Precipitation  
Precipitation 0.02 in - - ()
Sea Level Pressure  
Sea Level Pressure 29.99 in    
Wind  
Wind Speed 11 mph (NW)    
Max Wind Speed 18 mph    
Max Gust Speed 26 mph    
Visibility 7 miles    
Events Snow    
Averages and records for this station are not official NWS values.
T = Trace of Precipitation, MM = Missing Value Source: NWS Daily Summary

Daily Weather History Graph

Daily Weather History Graph

Search for Another Location

Airport or City:

Trip Planner

Search our weather history database for the weather conditions in past years. The results will help you decide how hot, cold, wet, or windy it might be!

Date:

Astronomy

Apr. 23, 2013 Rise Set
Actual Time 5:57 AM CDT 8:03 PM CDT
Civil Twilight 5:23 AM CDT 8:37 PM CDT
Nautical Twilight 4:42 AM CDT 9:18 PM CDT
Astronomical Twilight 3:55 AM CDT 10:05 PM CDT
Moon 5:51 PM CDT (4/23) 4:35 AM CDT (4/23)
Length of Visible Light 15h 13m
Length of Day
14h 06m
Waxing Gibbous, 94% of the Moon is Illuminated
Apr 23
Waxing Gibbous
Apr 25
Full
May 2
Last Quarter
May 9
New
May 17
First Quarter

Hourly Weather History & Observations

Time (CDT) Temp. Windchill Dew Point Humidity Pressure Visibility Wind Dir Wind Speed Gust Speed Precip Events Conditions
12:13 AM 28.4 °F 18.5 °F 23.0 °F 80% 30.12 in 1.8 mi North 11.5 mph 18.4 mph N/A Snow Light Snow
12:33 AM 28.4 °F 19.1 °F 23.0 °F 80% 30.11 in 1.8 mi North 10.4 mph - N/A Snow Light Snow
12:54 AM 28.4 °F 18.5 °F 24.8 °F 86% 30.11 in 2.0 mi North 11.5 mph - N/A Snow Light Snow
1:13 AM 28.4 °F 20.4 °F 23.0 °F 80% 30.11 in 1.8 mi North 8.1 mph - N/A Snow Light Snow
1:33 AM 26.6 °F 16.8 °F 23.0 °F 86% 30.11 in 1.2 mi North 10.4 mph - 0.01 in Snow Light Snow
1:54 AM 26.6 °F 17.5 °F 23.0 °F 86% 30.10 in 1.0 mi North 9.2 mph - 0.01 in Snow Snow
2:13 AM 26.6 °F 16.2 °F 21.2 °F 80% 30.09 in 1.8 mi North 11.5 mph 17.3 mph N/A Snow Light Snow
2:34 AM 26.6 °F 17.5 °F 21.2 °F 80% 30.08 in 1.5 mi North 9.2 mph 16.1 mph N/A Snow Light Snow
2:51 AM 26.6 °F 15.2 °F 21.2 °F 80% 30.07 in 1.5 mi North 13.8 mph 19.6 mph N/A Snow Light Snow
3:14 AM 26.6 °F 16.2 °F 21.2 °F 80% 30.06 in 1.8 mi North 11.5 mph 19.6 mph N/A Snow Light Snow
3:34 AM 26.6 °F 15.7 °F 21.2 °F 80% 30.06 in 2.0 mi North 12.7 mph 18.4 mph N/A Snow Light Snow
3:53 AM 26.6 °F 16.8 °F 21.2 °F 80% 30.05 in 2.0 mi NNW 10.4 mph 17.3 mph N/A Snow Light Snow
4:13 AM 24.8 °F 13.4 °F 21.2 °F 86% 30.05 in 1.8 mi North 12.7 mph 20.7 mph 0.01 in Snow Light Snow
4:33 AM 24.8 °F 14.6 °F 21.2 °F 86% 30.04 in 1.8 mi NNW 10.4 mph - 0.01 in Snow Light Snow
4:53 AM 24.8 °F 12.9 °F 21.2 °F 86% 30.04 in 2.5 mi NNW 13.8 mph 17.3 mph 0.01 in Snow Light Snow
5:14 AM 24.8 °F 14.6 °F 19.4 °F 80% 30.04 in 2.0 mi NNW 10.4 mph 17.3 mph N/A Snow Light Snow
5:33 AM 24.8 °F 14.0 °F 19.4 °F 80% 30.03 in 1.8 mi NNW 11.5 mph - N/A Snow Light Snow
5:54 AM 24.8 °F 15.3 °F 19.4 °F 80% 30.02 in 2.0 mi NNW 9.2 mph - N/A Snow Light Snow
6:14 AM 24.8 °F 14.6 °F 19.4 °F 80% 30.01 in 2.0 mi NNW 10.4 mph - N/A Snow Light Snow
6:33 AM 24.8 °F 13.4 °F 19.4 °F 80% 30.00 in 2.5 mi NNW 12.7 mph - N/A Snow Light Snow
6:53 AM 24.8 °F 14.0 °F 19.4 °F 80% 30.00 in 4.0 mi NNW 11.5 mph - N/A Snow Light Snow
7:13 AM 24.8 °F 15.3 °F 19.4 °F 80% 30.00 in 5.0 mi NNW 9.2 mph 18.4 mph N/A Snow Light Snow
7:34 AM 26.6 °F 15.7 °F 19.4 °F 74% 30.00 in 4.0 mi NNW 12.7 mph 19.6 mph N/A Snow Light Snow
7:53 AM 26.6 °F 15.2 °F 19.4 °F 74% 30.01 in 3.0 mi NNW 13.8 mph - N/A Snow Light Snow
8:13 AM 26.6 °F 17.5 °F 19.4 °F 74% 30.01 in 7.0 mi NNW 9.2 mph 17.3 mph N/A   Mostly Cloudy
8:33 AM 26.6 °F 16.2 °F 19.4 °F 74% 30.01 in 4.0 mi NNW 11.5 mph 20.7 mph N/A   Haze
8:54 AM 26.6 °F 17.5 °F 19.4 °F 74% 30.01 in 2.0 mi NNW 9.2 mph 17.3 mph N/A Snow Light Snow
9:13 AM 28.4 °F 17.5 °F 21.2 °F 74% 30.00 in 2.5 mi NNW 13.8 mph - N/A Snow Light Snow
9:34 AM 28.4 °F 16.2 °F 19.4 °F 69% 30.00 in 4.0 mi NNW 17.3 mph 23.0 mph N/A   Haze
9:53 AM 30.2 °F 18.9 °F 19.4 °F 64% 29.99 in 10.0 mi NW 16.1 mph 19.6 mph N/A   Overcast
10:14 AM 30.2 °F 20.2 °F 19.4 °F 64% 29.99 in 10.0 mi NNW 12.7 mph 18.4 mph N/A   Overcast
10:33 AM 30.2 °F 18.5 °F 19.4 °F 64% 29.98 in 10.0 mi NNW 17.3 mph 25.3 mph N/A   Mostly Cloudy
10:53 AM 30.2 °F 18.5 °F 17.6 °F 60% 29.99 in 10.0 mi NNW 17.3 mph 23.0 mph N/A   Mostly Cloudy
11:14 AM 32.0 °F 20.5 °F 17.6 °F 55% 29.98 in 10.0 mi NNW 18.4 mph 25.3 mph N/A   Mostly Cloudy
11:33 AM 32.0 °F 22.5 °F 17.6 °F 55% 29.97 in 10.0 mi NW 12.7 mph 25.3 mph N/A   Mostly Cloudy
11:54 AM 33.8 °F 24.8 °F 17.6 °F 52% 29.97 in 10.0 mi NNW 12.7 mph 21.9 mph N/A   Mostly Cloudy
12:13 PM 33.8 °F 23.2 °F 15.8 °F 48% 29.98 in 10.0 mi NNW 17.3 mph 26.5 mph N/A   Scattered Clouds
12:34 PM 33.8 °F 24.3 °F 17.6 °F 52% 29.97 in 10.0 mi NNW 13.8 mph 21.9 mph N/A   Clear
12:53 PM 33.8 °F 24.8 °F 15.8 °F 48% 29.97 in 10.0 mi NNW 12.7 mph 17.3 mph N/A   Scattered Clouds
1:14 PM 33.8 °F 25.3 °F 14.0 °F 44% 29.97 in 10.0 mi NW 11.5 mph 19.6 mph N/A   Mostly Cloudy
1:33 PM 33.8 °F 24.8 °F 15.8 °F 48% 29.96 in 10.0 mi NW 12.7 mph 20.7 mph N/A   Scattered Clouds
1:53 PM 35.6 °F 26.2 °F 15.8 °F 44% 29.96 in 10.0 mi NNW 15.0 mph 18.4 mph N/A   Mostly Cloudy
2:14 PM 35.6 °F 27.1 °F 15.8 °F 44% 29.96 in 10.0 mi NNW 12.7 mph - N/A   Mostly Cloudy
2:33 PM 37.4 °F 31.4 °F 15.8 °F 41% 29.96 in 10.0 mi NNW 8.1 mph 17.3 mph N/A   Mostly Cloudy
2:53 PM 37.4 °F 29.3 °F 12.2 °F 36% 29.96 in 10.0 mi WNW 12.7 mph 19.6 mph N/A   Mostly Cloudy
3:14 PM 37.4 °F 31.4 °F 12.2 °F 36% 29.96 in 10.0 mi WNW 8.1 mph 19.6 mph N/A   Mostly Cloudy
3:33 PM 37.4 °F 30.8 °F 12.2 °F 36% 29.96 in 10.0 mi West 9.2 mph - N/A   Mostly Cloudy
3:54 PM 39.2 °F 32.0 °F 12.2 °F 33% 29.95 in 10.0 mi West 11.5 mph 20.7 mph N/A   Overcast
4:13 PM 37.4 °F 31.4 °F 14.0 °F 38% 29.95 in 10.0 mi NW 8.1 mph - N/A   Overcast
4:34 PM 35.6 °F 29.9 °F 12.2 °F 38% 29.95 in 10.0 mi WNW 6.9 mph - N/A   Mostly Cloudy
4:53 PM 37.4 °F 29.8 °F 12.2 °F 36% 29.95 in 10.0 mi North 11.5 mph - N/A   Overcast
5:13 PM 37.4 °F 33.8 °F 10.4 °F 33% 29.95 in 10.0 mi WNW 4.6 mph - N/A   Mostly Cloudy
5:33 PM 37.4 °F 32.1 °F 10.4 °F 33% 29.94 in 10.0 mi WSW 6.9 mph - N/A   Mostly Cloudy
5:54 PM 37.4 °F 32.8 °F 10.4 °F 33% 29.94 in 10.0 mi WNW 5.8 mph - N/A   Mostly Cloudy
6:14 PM 37.4 °F 31.4 °F 10.4 °F 33% 29.94 in 10.0 mi West 8.1 mph - N/A   Scattered Clouds
6:34 PM 37.4 °F 30.8 °F 10.4 °F 33% 29.94 in 10.0 mi West 9.2 mph - N/A   Scattered Clouds
6:53 PM 35.6 °F 30.7 °F 10.4 °F 35% 29.94 in 10.0 mi WNW 5.8 mph - N/A   Clear
7:14 PM 35.6 °F 29.2 °F 8.6 °F 33% 29.94 in 10.0 mi WNW 8.1 mph - N/A   Clear
7:33 PM 33.8 °F 28.6 °F 10.4 °F 38% 29.94 in 10.0 mi West 5.8 mph - N/A   Clear
7:53 PM 33.8 °F 29.6 °F 10.4 °F 38% 29.94 in 10.0 mi WNW 4.6 mph - N/A   Clear
8:14 PM 30.2 °F 26.7 °F 10.4 °F 44% 29.94 in 10.0 mi West 3.5 mph - N/A   Clear
8:34 PM 30.2 °F 26.7 °F 10.4 °F 44% 29.94 in 10.0 mi West 3.5 mph - N/A   Clear
8:53 PM 28.4 °F 23.3 °F 10.4 °F 47% 29.95 in 10.0 mi WNW 4.6 mph - N/A   Clear
9:13 PM 28.4 °F 23.3 °F 10.4 °F 47% 29.95 in 10.0 mi WNW 4.6 mph - N/A   Clear
9:33 PM 28.4 °F 24.6 °F 10.4 °F 47% 29.95 in 10.0 mi WNW 3.5 mph - N/A   Clear
9:53 PM 26.6 °F 22.6 °F 12.2 °F 55% 29.94 in 10.0 mi WNW 3.5 mph - N/A   Clear
10:14 PM 28.4 °F 23.3 °F 10.4 °F 47% 29.94 in 10.0 mi West 4.6 mph - N/A   Clear
10:34 PM 28.4 °F 22.2 °F 10.4 °F 47% 29.94 in 10.0 mi West 5.8 mph - N/A   Clear
10:54 PM 28.4 °F 21.2 °F 12.2 °F 51% 29.94 in 10.0 mi WNW 6.9 mph - N/A   Clear
11:13 PM 26.6 °F 20.0 °F 12.2 °F 55% 29.94 in 10.0 mi West 5.8 mph - N/A   Clear
11:33 PM 26.6 °F 19.1 °F 12.2 °F 55% 29.93 in 10.0 mi West 6.9 mph - N/A   Clear
11:54 PM 26.6 °F 20.0 °F 12.2 °F 55% 29.93 in 10.0 mi WNW 5.8 mph - N/A   Clear